NTAA Airport Information

Runway Information
Runway 04 Length 11360 ft width 148 ft
Elevation 5 ft Threshold 1120 ft Heading 54
Runway 22 Length 11360 ft Width 148 ft
Elevation 5 ft Threshold 390 ft Heading 234
Airport Frequencies
Type APP Name APP Frequency 118.1 MHZ
Type ATIS Name ATIS Frequency 128.8 MHZ
Type GND Name GND Frequency 121.9 MHZ
Type TWR Name TWR Frequency 118.1 MHZ
Airport Navaids
Type NDB Name Tahiti Faaa Frequency 305 KHZ
Type VOR-DME Name Tahiti Faaa Frequency 112900 KHZ
Airport Weather Information & NOTAM
ADDS - METARS form results

(0435 UTC 15 November 2018)
Data provider http://aviationweather.gov/metar/data/
 
METAR text: NTAA 150430Z 06012KT 9999 FEW020 SCT280 28/23 Q1011 NOSIG
Conditions at: NTAA (TAHITI-FAAA POLY, WS) observed 0430 UTC 15 November 2018
Temperature: 28.0°C (82°F)
Dewpoint: 23.0°C (73°F) [RH = 74%]
Pressure (altimeter): 29.85 inches Hg (1011.0 mb)
Winds: from the ENE (60 degrees) at 14 MPH (12 knots; 6.2 m/s)
Visibility: 6 or more miles (10+ km)
Ceiling: at least 12,000 feet AGL
Clouds: few clouds at 2000 feet AGL
scattered clouds at 28000 feet AGL
Weather: no significant weather observed at this time

METAR text: NTAA 150400Z 06013KT 9999 FEW020 BKN280 28/23 Q1010 NOSIG
Conditions at: NTAA (TAHITI-FAAA POLY, WS) observed 0400 UTC 15 November 2018
Temperature: 28.0°C (82°F)
Dewpoint: 23.0°C (73°F) [RH = 74%]
Pressure (altimeter): 29.82 inches Hg (1010.0 mb)
Winds: from the ENE (60 degrees) at 15 MPH (13 knots; 6.7 m/s)
Visibility: 6 or more miles (10+ km)
Ceiling: 28000 feet AGL
Clouds: few clouds at 2000 feet AGL
broken clouds at 28000 feet AGL
Weather: no significant weather observed at this time

Forecast for: NTAA (TAHITI-FAAA POLY, WS)
Text: TAF NTAA 142300Z 1500/1606 04015KT 9999 FEW023
Forecast period: 0000 to 0300 UTC 15 November 2018
Forecast type: FROM: standard forecast or significant change
Winds: from the NE (40 degrees) at 17 MPH (15 knots; 7.7 m/s)
Visibility: 6 or more miles 10+ km)
Ceiling: at least 12,000 feet AGL
Clouds: few clouds at 2300 feet AGL
Weather: no significant weather forecast for this period
Text: BECMG 1503/1505 VRB03KT
Forecast period: 0300 to 2000 UTC 15 November 2018
Forecast type: BECOMING: Conditions expected to become as follows by 0500 UTC 15 November 2018
Winds: variable direction winds at 3 MPH (3 knots; 1.5 m/s)
Visibility: 6 or more miles 10+ km)
Ceiling: at least 12,000 feet AGL
Clouds: few clouds at 2300 feet AGL
Weather: no significant weather forecast for this period
Text: FM152000 01015KT 9999 FEW020 BKN045
Forecast period: 2000 UTC 15 November 2018 to 0600 UTC 16 November 2018
Forecast type: FROM: standard forecast or significant change
Winds: from the N (10 degrees) at 17 MPH (15 knots; 7.7 m/s)
Visibility: 6 or more miles 10+ km)
Ceiling: 4500 feet AGL
Clouds: few clouds at 2000 feet AGL
broken clouds at 4500 feet AGL
Weather: no significant weather forecast for this period